sensor_id;sensor_type;location;lat;lon;timestamp;P1;durP1;ratioP1;P2;durP2;ratioP2
17079;SDS011;8655;57.106;-2.088;2023-03-25T00:00:16;2.07;;;1.50;;
17079;SDS011;8655;57.106;-2.088;2023-03-25T00:02:43;2.43;;;1.90;;
17079;SDS011;8655;57.106;-2.088;2023-03-25T00:05:10;1.97;;;1.67;;
17079;SDS011;8655;57.106;-2.088;2023-03-25T00:07:38;1.80;;;1.50;;
17079;SDS011;8655;57.106;-2.088;2023-03-25T00:10:05;2.83;;;1.60;;
17079;SDS011;8655;57.106;-2.088;2023-03-25T00:12:32;2.03;;;1.80;;
17079;SDS011;8655;57.106;-2.088;2023-03-25T00:14:58;2.43;;;1.77;;
17079;SDS011;8655;57.106;-2.088;2023-03-25T00:17:24;1.77;;;1.60;;
17079;SDS011;8655;57.106;-2.088;2023-03-25T00:19:53;2.20;;;1.70;;
17079;SDS011;8655;57.106;-2.088;2023-03-25T00:22:20;3.17;;;1.40;;
17079;SDS011;8655;57.106;-2.088;2023-03-25T00:24:46;2.63;;;1.80;;
17079;SDS011;8655;57.106;-2.088;2023-03-25T00:27:12;3.63;;;1.77;;
17079;SDS011;8655;57.106;-2.088;2023-03-25T00:29:41;2.50;;;1.63;;
17079;SDS011;8655;57.106;-2.088;2023-03-25T00:32:08;2.13;;;1.53;;
17079;SDS011;8655;57.106;-2.088;2023-03-25T00:34:34;2.43;;;1.30;;
17079;SDS011;8655;57.106;-2.088;2023-03-25T00:37:05;3.20;;;1.47;;
17079;SDS011;8655;57.106;-2.088;2023-03-25T00:39:35;2.03;;;1.33;;
17079;SDS011;8655;57.106;-2.088;2023-03-25T00:42:02;2.97;;;1.63;;
17079;SDS011;8655;57.106;-2.088;2023-03-25T00:44:28;2.60;;;1.40;;
17079;SDS011;8655;57.106;-2.088;2023-03-25T00:46:55;3.10;;;1.40;;
17079;SDS011;8655;57.106;-2.088;2023-03-25T00:49:20;2.67;;;1.60;;
17079;SDS011;8655;57.106;-2.088;2023-03-25T00:51:52;2.07;;;1.70;;
17079;SDS011;8655;57.106;-2.088;2023-03-25T00:54:17;2.17;;;1.60;;
17079;SDS011;8655;57.106;-2.088;2023-03-25T00:56:46;1.90;;;1.43;;
17079;SDS011;8655;57.106;-2.088;2023-03-25T00:59:12;2.47;;;1.60;;
17079;SDS011;8655;57.106;-2.088;2023-03-25T01:01:37;1.63;;;1.30;;
17079;SDS011;8655;57.106;-2.088;2023-03-25T01:04:03;2.50;;;1.53;;
17079;SDS011;8655;57.106;-2.088;2023-03-25T01:06:36;2.33;;;1.40;;
17079;SDS011;8655;57.106;-2.088;2023-03-25T01:09:08;2.07;;;1.43;;
17079;SDS011;8655;57.106;-2.088;2023-03-25T01:11:38;2.10;;;1.30;;
17079;SDS011;8655;57.106;-2.088;2023-03-25T01:14:08;2.97;;;1.50;;
17079;SDS011;8655;57.106;-2.088;2023-03-25T01:16:37;2.27;;;1.60;;
17079;SDS011;8655;57.106;-2.088;2023-03-25T01:19:03;2.13;;;1.40;;
17079;SDS011;8655;57.106;-2.088;2023-03-25T01:21:29;2.50;;;1.40;;
17079;SDS011;8655;57.106;-2.088;2023-03-25T01:23:57;2.40;;;1.60;;
17079;SDS011;8655;57.106;-2.088;2023-03-25T01:26:23;1.87;;;1.30;;
17079;SDS011;8655;57.106;-2.088;2023-03-25T01:28:49;3.33;;;1.60;;
17079;SDS011;8655;57.106;-2.088;2023-03-25T01:31:15;2.07;;;1.40;;
17079;SDS011;8655;57.106;-2.088;2023-03-25T01:33:41;3.43;;;1.37;;
17079;SDS011;8655;57.106;-2.088;2023-03-25T01:36:06;2.77;;;1.50;;
17079;SDS011;8655;57.106;-2.088;2023-03-25T01:38:33;2.37;;;1.23;;
17079;SDS011;8655;57.106;-2.088;2023-03-25T01:41:01;2.73;;;1.40;;
17079;SDS011;8655;57.106;-2.088;2023-03-25T01:43:27;1.63;;;1.23;;
17079;SDS011;8655;57.106;-2.088;2023-03-25T01:45:53;4.10;;;1.63;;
17079;SDS011;8655;57.106;-2.088;2023-03-25T01:48:36;1.90;;;1.50;;
17079;SDS011;8655;57.106;-2.088;2023-03-25T01:51:09;3.07;;;1.67;;
17079;SDS011;8655;57.106;-2.088;2023-03-25T01:53:42;1.70;;;1.40;;
17079;SDS011;8655;57.106;-2.088;2023-03-25T01:56:08;2.60;;;1.50;;
17079;SDS011;8655;57.106;-2.088;2023-03-25T01:58:37;2.27;;;1.43;;
17079;SDS011;8655;57.106;-2.088;2023-03-25T02:01:05;2.33;;;1.50;;
17079;SDS011;8655;57.106;-2.088;2023-03-25T02:03:31;1.83;;;1.30;;
17079;SDS011;8655;57.106;-2.088;2023-03-25T02:06:03;3.30;;;1.47;;
17079;SDS011;8655;57.106;-2.088;2023-03-25T02:08:37;2.83;;;1.40;;
17079;SDS011;8655;57.106;-2.088;2023-03-25T02:11:05;3.17;;;1.40;;
17079;SDS011;8655;57.106;-2.088;2023-03-25T02:13:32;1.93;;;1.23;;
17079;SDS011;8655;57.106;-2.088;2023-03-25T02:18:55;3.20;;;1.60;;
17079;SDS011;8655;57.106;-2.088;2023-03-25T02:27:33;2.27;;;1.30;;
17079;SDS011;8655;57.106;-2.088;2023-03-25T02:39:07;4.13;;;1.60;;
17079;SDS011;8655;57.106;-2.088;2023-03-25T02:44:40;3.33;;;1.50;;
17079;SDS011;8655;57.106;-2.088;2023-03-25T02:47:17;2.53;;;1.27;;
17079;SDS011;8655;57.106;-2.088;2023-03-25T02:49:47;2.73;;;1.30;;
17079;SDS011;8655;57.106;-2.088;2023-03-25T02:52:22;4.07;;;1.50;;
17079;SDS011;8655;57.106;-2.088;2023-03-25T02:54:54;3.90;;;1.60;;
17079;SDS011;8655;57.106;-2.088;2023-03-25T02:57:26;3.57;;;1.50;;
17079;SDS011;8655;57.106;-2.088;2023-03-25T02:59:53;3.87;;;1.33;;
17079;SDS011;8655;57.106;-2.088;2023-03-25T03:02:21;3.20;;;1.47;;
17079;SDS011;8655;57.106;-2.088;2023-03-25T03:04:51;3.13;;;1.53;;
17079;SDS011;8655;57.106;-2.088;2023-03-25T03:09:59;3.50;;;1.57;;
17079;SDS011;8655;57.106;-2.088;2023-03-25T03:12:35;2.57;;;1.40;;
17079;SDS011;8655;57.106;-2.088;2023-03-25T03:17:45;3.83;;;1.47;;
17079;SDS011;8655;57.106;-2.088;2023-03-25T03:20:37;3.70;;;1.53;;
17079;SDS011;8655;57.106;-2.088;2023-03-25T03:23:27;3.30;;;1.47;;
17079;SDS011;8655;57.106;-2.088;2023-03-25T03:26:07;2.33;;;1.10;;
17079;SDS011;8655;57.106;-2.088;2023-03-25T03:34:19;4.40;;;1.57;;
17079;SDS011;8655;57.106;-2.088;2023-03-25T03:36:51;4.73;;;1.77;;
17079;SDS011;8655;57.106;-2.088;2023-03-25T03:39:22;3.33;;;1.57;;
17079;SDS011;8655;57.106;-2.088;2023-03-25T03:41:58;2.97;;;1.50;;
17079;SDS011;8655;57.106;-2.088;2023-03-25T03:44:29;2.83;;;1.50;;
17079;SDS011;8655;57.106;-2.088;2023-03-25T03:47:03;3.13;;;1.30;;
17079;SDS011;8655;57.106;-2.088;2023-03-25T03:49:38;3.83;;;1.40;;
17079;SDS011;8655;57.106;-2.088;2023-03-25T03:52:21;3.60;;;1.60;;
17079;SDS011;8655;57.106;-2.088;2023-03-25T03:54:55;2.60;;;1.30;;
17079;SDS011;8655;57.106;-2.088;2023-03-25T03:57:31;2.97;;;1.27;;
17079;SDS011;8655;57.106;-2.088;2023-03-25T04:00:09;2.17;;;1.27;;
17079;SDS011;8655;57.106;-2.088;2023-03-25T04:02:48;4.20;;;1.60;;
17079;SDS011;8655;57.106;-2.088;2023-03-25T04:05:19;3.37;;;1.33;;
17079;SDS011;8655;57.106;-2.088;2023-03-25T04:07:54;2.47;;;1.17;;
17079;SDS011;8655;57.106;-2.088;2023-03-25T04:10:40;4.13;;;1.30;;
17079;SDS011;8655;57.106;-2.088;2023-03-25T04:13:16;4.20;;;1.40;;
17079;SDS011;8655;57.106;-2.088;2023-03-25T04:15:44;3.13;;;1.30;;
17079;SDS011;8655;57.106;-2.088;2023-03-25T04:18:10;4.07;;;2.00;;
17079;SDS011;8655;57.106;-2.088;2023-03-25T04:20:36;3.67;;;1.73;;
17079;SDS011;8655;57.106;-2.088;2023-03-25T04:23:09;3.03;;;1.60;;
17079;SDS011;8655;57.106;-2.088;2023-03-25T04:25:40;3.27;;;1.30;;
17079;SDS011;8655;57.106;-2.088;2023-03-25T04:28:13;3.83;;;1.50;;
17079;SDS011;8655;57.106;-2.088;2023-03-25T04:30:42;3.33;;;1.43;;
17079;SDS011;8655;57.106;-2.088;2023-03-25T04:33:11;2.73;;;1.40;;
17079;SDS011;8655;57.106;-2.088;2023-03-25T04:35:37;3.90;;;1.50;;
17079;SDS011;8655;57.106;-2.088;2023-03-25T04:38:04;2.87;;;1.33;;
17079;SDS011;8655;57.106;-2.088;2023-03-25T04:40:33;2.53;;;1.30;;
17079;SDS011;8655;57.106;-2.088;2023-03-25T04:42:58;3.63;;;1.50;;
17079;SDS011;8655;57.106;-2.088;2023-03-25T04:45:24;3.80;;;1.57;;
17079;SDS011;8655;57.106;-2.088;2023-03-25T04:47:52;3.80;;;1.50;;
17079;SDS011;8655;57.106;-2.088;2023-03-25T04:50:19;2.70;;;1.60;;
17079;SDS011;8655;57.106;-2.088;2023-03-25T04:52:51;3.43;;;1.37;;
17079;SDS011;8655;57.106;-2.088;2023-03-25T04:55:17;3.10;;;1.20;;
17079;SDS011;8655;57.106;-2.088;2023-03-25T04:57:47;3.10;;;1.60;;
17079;SDS011;8655;57.106;-2.088;2023-03-25T05:00:16;4.00;;;1.57;;
17079;SDS011;8655;57.106;-2.088;2023-03-25T05:02:47;4.27;;;1.57;;
17079;SDS011;8655;57.106;-2.088;2023-03-25T05:05:16;3.23;;;1.40;;
17079;SDS011;8655;57.106;-2.088;2023-03-25T05:07:46;1.90;;;1.30;;
17079;SDS011;8655;57.106;-2.088;2023-03-25T05:10:16;2.03;;;1.23;;
17079;SDS011;8655;57.106;-2.088;2023-03-25T05:12:47;3.17;;;1.43;;
17079;SDS011;8655;57.106;-2.088;2023-03-25T05:15:13;5.07;;;1.53;;
17079;SDS011;8655;57.106;-2.088;2023-03-25T05:17:41;3.87;;;1.60;;
17079;SDS011;8655;57.106;-2.088;2023-03-25T05:20:08;2.80;;;1.40;;
17079;SDS011;8655;57.106;-2.088;2023-03-25T05:22:34;4.47;;;1.53;;
17079;SDS011;8655;57.106;-2.088;2023-03-25T05:25:02;3.33;;;1.43;;
17079;SDS011;8655;57.106;-2.088;2023-03-25T05:27:30;4.93;;;1.50;;
17079;SDS011;8655;57.106;-2.088;2023-03-25T05:29:56;3.20;;;1.20;;
17079;SDS011;8655;57.106;-2.088;2023-03-25T05:32:23;5.10;;;1.43;;
17079;SDS011;8655;57.106;-2.088;2023-03-25T05:34:50;4.07;;;1.50;;
17079;SDS011;8655;57.106;-2.088;2023-03-25T05:37:17;4.10;;;1.60;;
17079;SDS011;8655;57.106;-2.088;2023-03-25T05:39:43;4.93;;;1.70;;
17079;SDS011;8655;57.106;-2.088;2023-03-25T05:42:10;4.13;;;1.53;;
17079;SDS011;8655;57.106;-2.088;2023-03-25T05:44:35;3.63;;;1.50;;
17079;SDS011;8655;57.106;-2.088;2023-03-25T05:47:02;2.93;;;1.30;;
17079;SDS011;8655;57.106;-2.088;2023-03-25T05:49:28;2.83;;;1.30;;
17079;SDS011;8655;57.106;-2.088;2023-03-25T05:51:54;5.57;;;1.77;;
17079;SDS011;8655;57.106;-2.088;2023-03-25T05:54:21;4.63;;;1.70;;
17079;SDS011;8655;57.106;-2.088;2023-03-25T05:56:49;4.57;;;1.47;;
17079;SDS011;8655;57.106;-2.088;2023-03-25T05:59:15;3.60;;;1.40;;
17079;SDS011;8655;57.106;-2.088;2023-03-25T06:01:41;3.80;;;1.63;;
17079;SDS011;8655;57.106;-2.088;2023-03-25T06:04:09;3.60;;;1.60;;
17079;SDS011;8655;57.106;-2.088;2023-03-25T06:06:36;4.57;;;1.80;;
17079;SDS011;8655;57.106;-2.088;2023-03-25T06:09:04;3.97;;;1.80;;
17079;SDS011;8655;57.106;-2.088;2023-03-25T06:11:31;3.27;;;1.33;;
17079;SDS011;8655;57.106;-2.088;2023-03-25T06:14:10;4.87;;;1.40;;
17079;SDS011;8655;57.106;-2.088;2023-03-25T06:16:36;4.17;;;1.70;;
17079;SDS011;8655;57.106;-2.088;2023-03-25T06:19:02;4.23;;;1.83;;
17079;SDS011;8655;57.106;-2.088;2023-03-25T06:21:29;5.27;;;1.67;;
17079;SDS011;8655;57.106;-2.088;2023-03-25T06:23:59;4.80;;;1.80;;
17079;SDS011;8655;57.106;-2.088;2023-03-25T06:26:25;2.33;;;1.30;;
17079;SDS011;8655;57.106;-2.088;2023-03-25T06:28:51;4.53;;;1.90;;
17079;SDS011;8655;57.106;-2.088;2023-03-25T06:31:19;3.73;;;1.67;;
17079;SDS011;8655;57.106;-2.088;2023-03-25T06:33:47;4.57;;;1.40;;
17079;SDS011;8655;57.106;-2.088;2023-03-25T06:36:14;4.17;;;1.47;;
17079;SDS011;8655;57.106;-2.088;2023-03-25T06:38:43;4.60;;;1.80;;
17079;SDS011;8655;57.106;-2.088;2023-03-25T06:41:09;4.33;;;1.60;;
17079;SDS011;8655;57.106;-2.088;2023-03-25T06:43:38;4.70;;;1.50;;
17079;SDS011;8655;57.106;-2.088;2023-03-25T06:46:05;6.43;;;2.00;;
17079;SDS011;8655;57.106;-2.088;2023-03-25T06:48:30;4.67;;;1.60;;
17079;SDS011;8655;57.106;-2.088;2023-03-25T06:50:56;4.57;;;1.70;;
17079;SDS011;8655;57.106;-2.088;2023-03-25T06:53:22;4.40;;;1.70;;
17079;SDS011;8655;57.106;-2.088;2023-03-25T06:55:48;5.00;;;1.87;;
17079;SDS011;8655;57.106;-2.088;2023-03-25T06:58:13;6.37;;;2.17;;
17079;SDS011;8655;57.106;-2.088;2023-03-25T07:00:39;3.97;;;1.77;;
17079;SDS011;8655;57.106;-2.088;2023-03-25T07:03:05;3.57;;;1.50;;
17079;SDS011;8655;57.106;-2.088;2023-03-25T07:05:30;5.07;;;1.90;;
17079;SDS011;8655;57.106;-2.088;2023-03-25T07:07:56;4.67;;;1.67;;
17079;SDS011;8655;57.106;-2.088;2023-03-25T07:10:22;3.30;;;1.87;;
17079;SDS011;8655;57.106;-2.088;2023-03-25T07:12:48;4.17;;;1.50;;
17079;SDS011;8655;57.106;-2.088;2023-03-25T07:15:14;4.73;;;1.90;;
17079;SDS011;8655;57.106;-2.088;2023-03-25T07:17:39;4.83;;;1.67;;
17079;SDS011;8655;57.106;-2.088;2023-03-25T07:20:07;5.80;;;2.00;;
17079;SDS011;8655;57.106;-2.088;2023-03-25T07:22:34;4.13;;;1.90;;
17079;SDS011;8655;57.106;-2.088;2023-03-25T07:25:00;3.83;;;1.97;;
17079;SDS011;8655;57.106;-2.088;2023-03-25T07:27:25;4.43;;;1.77;;
17079;SDS011;8655;57.106;-2.088;2023-03-25T07:29:51;4.97;;;1.93;;
17079;SDS011;8655;57.106;-2.088;2023-03-25T07:32:17;4.60;;;2.00;;
17079;SDS011;8655;57.106;-2.088;2023-03-25T07:34:43;5.43;;;2.00;;
17079;SDS011;8655;57.106;-2.088;2023-03-25T07:37:08;5.33;;;1.90;;
17079;SDS011;8655;57.106;-2.088;2023-03-25T07:39:34;3.93;;;1.60;;
17079;SDS011;8655;57.106;-2.088;2023-03-25T07:42:00;3.90;;;1.70;;
17079;SDS011;8655;57.106;-2.088;2023-03-25T07:44:26;5.30;;;1.90;;
17079;SDS011;8655;57.106;-2.088;2023-03-25T07:46:51;5.33;;;1.90;;
17079;SDS011;8655;57.106;-2.088;2023-03-25T07:49:17;5.93;;;2.10;;
17079;SDS011;8655;57.106;-2.088;2023-03-25T07:51:43;4.97;;;2.20;;
17079;SDS011;8655;57.106;-2.088;2023-03-25T07:54:10;4.83;;;1.97;;
17079;SDS011;8655;57.106;-2.088;2023-03-25T07:56:36;4.47;;;1.80;;
17079;SDS011;8655;57.106;-2.088;2023-03-25T07:59:02;4.50;;;2.00;;
17079;SDS011;8655;57.106;-2.088;2023-03-25T08:01:29;6.00;;;2.40;;
17079;SDS011;8655;57.106;-2.088;2023-03-25T08:03:55;6.97;;;2.23;;
17079;SDS011;8655;57.106;-2.088;2023-03-25T08:06:21;4.87;;;1.83;;
17079;SDS011;8655;57.106;-2.088;2023-03-25T08:08:47;7.00;;;2.10;;
17079;SDS011;8655;57.106;-2.088;2023-03-25T08:11:13;4.53;;;1.90;;
17079;SDS011;8655;57.106;-2.088;2023-03-25T08:13:39;5.30;;;2.03;;
17079;SDS011;8655;57.106;-2.088;2023-03-25T08:16:09;4.37;;;2.13;;
17079;SDS011;8655;57.106;-2.088;2023-03-25T08:18:36;4.17;;;1.97;;
17079;SDS011;8655;57.106;-2.088;2023-03-25T08:21:02;3.87;;;1.53;;
17079;SDS011;8655;57.106;-2.088;2023-03-25T08:23:27;3.47;;;1.73;;
17079;SDS011;8655;57.106;-2.088;2023-03-25T08:25:53;4.70;;;1.80;;
17079;SDS011;8655;57.106;-2.088;2023-03-25T08:28:19;5.03;;;2.10;;
17079;SDS011;8655;57.106;-2.088;2023-03-25T08:30:47;5.47;;;2.20;;
17079;SDS011;8655;57.106;-2.088;2023-03-25T08:33:18;5.20;;;2.23;;
17079;SDS011;8655;57.106;-2.088;2023-03-25T08:35:45;4.87;;;1.90;;
17079;SDS011;8655;57.106;-2.088;2023-03-25T08:38:11;7.83;;;2.10;;
17079;SDS011;8655;57.106;-2.088;2023-03-25T08:40:37;5.03;;;2.07;;
17079;SDS011;8655;57.106;-2.088;2023-03-25T08:43:06;5.83;;;2.13;;
17079;SDS011;8655;57.106;-2.088;2023-03-25T08:45:32;5.03;;;2.03;;
17079;SDS011;8655;57.106;-2.088;2023-03-25T08:47:59;6.23;;;2.20;;
17079;SDS011;8655;57.106;-2.088;2023-03-25T08:50:25;5.63;;;1.90;;
17079;SDS011;8655;57.106;-2.088;2023-03-25T08:52:51;4.23;;;1.83;;
17079;SDS011;8655;57.106;-2.088;2023-03-25T08:55:18;6.90;;;2.60;;
17079;SDS011;8655;57.106;-2.088;2023-03-25T08:57:44;5.43;;;2.10;;
17079;SDS011;8655;57.106;-2.088;2023-03-25T09:00:10;5.73;;;2.03;;
17079;SDS011;8655;57.106;-2.088;2023-03-25T09:02:40;4.90;;;2.20;;
17079;SDS011;8655;57.106;-2.088;2023-03-25T09:05:11;5.37;;;2.10;;
17079;SDS011;8655;57.106;-2.088;2023-03-25T09:07:37;6.30;;;2.17;;
17079;SDS011;8655;57.106;-2.088;2023-03-25T09:10:04;6.83;;;1.93;;
17079;SDS011;8655;57.106;-2.088;2023-03-25T09:12:31;6.37;;;2.07;;
17079;SDS011;8655;57.106;-2.088;2023-03-25T09:14:57;5.57;;;2.10;;
17079;SDS011;8655;57.106;-2.088;2023-03-25T09:17:22;5.07;;;2.00;;
17079;SDS011;8655;57.106;-2.088;2023-03-25T09:19:48;6.13;;;2.30;;
17079;SDS011;8655;57.106;-2.088;2023-03-25T09:22:14;4.10;;;1.97;;
17079;SDS011;8655;57.106;-2.088;2023-03-25T09:24:40;5.70;;;1.83;;
17079;SDS011;8655;57.106;-2.088;2023-03-25T09:27:06;5.10;;;2.17;;
17079;SDS011;8655;57.106;-2.088;2023-03-25T09:29:32;5.97;;;2.13;;
17079;SDS011;8655;57.106;-2.088;2023-03-25T09:31:58;4.63;;;2.03;;
17079;SDS011;8655;57.106;-2.088;2023-03-25T09:34:25;5.13;;;1.83;;
17079;SDS011;8655;57.106;-2.088;2023-03-25T09:36:52;6.73;;;2.00;;
17079;SDS011;8655;57.106;-2.088;2023-03-25T09:39:18;5.53;;;2.00;;
17079;SDS011;8655;57.106;-2.088;2023-03-25T09:44:34;5.33;;;2.30;;
17079;SDS011;8655;57.106;-2.088;2023-03-25T09:47:02;5.23;;;2.03;;
17079;SDS011;8655;57.106;-2.088;2023-03-25T09:49:32;5.43;;;2.10;;
17079;SDS011;8655;57.106;-2.088;2023-03-25T09:52:05;4.70;;;2.03;;
17079;SDS011;8655;57.106;-2.088;2023-03-25T09:54:39;4.90;;;1.80;;
17079;SDS011;8655;57.106;-2.088;2023-03-25T09:57:17;6.63;;;2.00;;
17079;SDS011;8655;57.106;-2.088;2023-03-25T09:59:53;4.83;;;2.07;;
17079;SDS011;8655;57.106;-2.088;2023-03-25T10:02:39;5.97;;;2.10;;
17079;SDS011;8655;57.106;-2.088;2023-03-25T10:15:39;4.23;;;1.87;;
17079;SDS011;8655;57.106;-2.088;2023-03-25T10:18:41;4.17;;;1.93;;
17079;SDS011;8655;57.106;-2.088;2023-03-25T10:24:15;3.47;;;1.67;;
17079;SDS011;8655;57.106;-2.088;2023-03-25T10:29:31;6.47;;;2.00;;
17079;SDS011;8655;57.106;-2.088;2023-03-25T10:32:05;3.70;;;1.90;;
17079;SDS011;8655;57.106;-2.088;2023-03-25T10:34:40;5.23;;;2.00;;
17079;SDS011;8655;57.106;-2.088;2023-03-25T10:37:15;5.60;;;2.00;;
17079;SDS011;8655;57.106;-2.088;2023-03-25T10:39:45;4.67;;;1.90;;
17079;SDS011;8655;57.106;-2.088;2023-03-25T10:45:02;5.20;;;2.10;;
17079;SDS011;8655;57.106;-2.088;2023-03-25T10:47:36;5.97;;;2.23;;
17079;SDS011;8655;57.106;-2.088;2023-03-25T10:50:04;4.87;;;2.00;;
17079;SDS011;8655;57.106;-2.088;2023-03-25T10:52:31;5.80;;;2.00;;
17079;SDS011;8655;57.106;-2.088;2023-03-25T10:54:57;4.50;;;1.87;;
17079;SDS011;8655;57.106;-2.088;2023-03-25T10:57:24;3.87;;;1.70;;
17079;SDS011;8655;57.106;-2.088;2023-03-25T10:59:57;3.57;;;1.80;;
17079;SDS011;8655;57.106;-2.088;2023-03-25T11:02:46;5.50;;;1.73;;
17079;SDS011;8655;57.106;-2.088;2023-03-25T11:05:13;5.47;;;2.17;;
17079;SDS011;8655;57.106;-2.088;2023-03-25T11:07:49;3.27;;;1.77;;
17079;SDS011;8655;57.106;-2.088;2023-03-25T11:10:29;4.33;;;2.07;;
17079;SDS011;8655;57.106;-2.088;2023-03-25T11:12:59;3.43;;;1.70;;
17079;SDS011;8655;57.106;-2.088;2023-03-25T11:15:34;4.07;;;1.73;;
17079;SDS011;8655;57.106;-2.088;2023-03-25T11:20:37;3.33;;;1.80;;
17079;SDS011;8655;57.106;-2.088;2023-03-25T11:26:05;4.43;;;2.20;;
17079;SDS011;8655;57.106;-2.088;2023-03-25T11:28:41;4.90;;;1.93;;
17079;SDS011;8655;57.106;-2.088;2023-03-25T11:31:22;4.13;;;1.70;;
17079;SDS011;8655;57.106;-2.088;2023-03-25T11:34:13;3.60;;;1.80;;
17079;SDS011;8655;57.106;-2.088;2023-03-25T11:36:47;4.30;;;1.63;;
17079;SDS011;8655;57.106;-2.088;2023-03-25T11:41:47;3.63;;;1.60;;
17079;SDS011;8655;57.106;-2.088;2023-03-25T11:44:26;6.23;;;2.43;;
17079;SDS011;8655;57.106;-2.088;2023-03-25T11:47:05;5.80;;;1.90;;
17079;SDS011;8655;57.106;-2.088;2023-03-25T11:49:34;3.93;;;1.57;;
17079;SDS011;8655;57.106;-2.088;2023-03-25T11:52:11;4.43;;;1.73;;
17079;SDS011;8655;57.106;-2.088;2023-03-25T11:54:45;5.20;;;1.97;;
17079;SDS011;8655;57.106;-2.088;2023-03-25T11:57:12;3.93;;;1.77;;
17079;SDS011;8655;57.106;-2.088;2023-03-25T11:59:44;4.10;;;1.80;;
17079;SDS011;8655;57.106;-2.088;2023-03-25T12:10:16;5.23;;;2.40;;
17079;SDS011;8655;57.106;-2.088;2023-03-25T12:13:06;4.07;;;1.70;;
17079;SDS011;8655;57.106;-2.088;2023-03-25T12:15:45;5.90;;;1.97;;
17079;SDS011;8655;57.106;-2.088;2023-03-25T12:19:01;3.77;;;1.70;;
17079;SDS011;8655;57.106;-2.088;2023-03-25T12:21:48;4.70;;;2.10;;
17079;SDS011;8655;57.106;-2.088;2023-03-25T12:47:20;4.20;;;1.90;;
17079;SDS011;8655;57.106;-2.088;2023-03-25T13:04:33;2.73;;;1.50;;
17079;SDS011;8655;57.106;-2.088;2023-03-25T13:07:08;5.43;;;1.67;;
17079;SDS011;8655;57.106;-2.088;2023-03-25T13:10:12;3.40;;;1.50;;
17079;SDS011;8655;57.106;-2.088;2023-03-25T13:12:50;4.07;;;1.63;;
17079;SDS011;8655;57.106;-2.088;2023-03-25T13:15:31;3.90;;;1.70;;
17079;SDS011;8655;57.106;-2.088;2023-03-25T13:18:23;4.17;;;1.77;;
17079;SDS011;8655;57.106;-2.088;2023-03-25T13:23:46;4.37;;;1.60;;
17079;SDS011;8655;57.106;-2.088;2023-03-25T13:26:17;5.30;;;1.70;;
17079;SDS011;8655;57.106;-2.088;2023-03-25T13:31:21;2.97;;;1.63;;
17079;SDS011;8655;57.106;-2.088;2023-03-25T13:37:03;3.50;;;1.60;;
17079;SDS011;8655;57.106;-2.088;2023-03-25T13:48:53;4.53;;;1.67;;
17079;SDS011;8655;57.106;-2.088;2023-03-25T13:51:23;3.33;;;1.60;;
17079;SDS011;8655;57.106;-2.088;2023-03-25T14:13:38;3.50;;;1.53;;
17079;SDS011;8655;57.106;-2.088;2023-03-25T14:16:08;5.73;;;1.60;;
17079;SDS011;8655;57.106;-2.088;2023-03-25T14:18:45;3.70;;;1.53;;
17079;SDS011;8655;57.106;-2.088;2023-03-25T14:23:45;2.37;;;1.47;;
17079;SDS011;8655;57.106;-2.088;2023-03-25T14:26:14;4.10;;;1.50;;
17079;SDS011;8655;57.106;-2.088;2023-03-25T14:28:43;3.83;;;1.63;;
17079;SDS011;8655;57.106;-2.088;2023-03-25T14:39:10;4.33;;;1.90;;
17079;SDS011;8655;57.106;-2.088;2023-03-25T14:44:36;4.07;;;1.80;;
17079;SDS011;8655;57.106;-2.088;2023-03-25T14:52:43;3.67;;;1.80;;
17079;SDS011;8655;57.106;-2.088;2023-03-25T15:00:39;3.93;;;1.57;;
17079;SDS011;8655;57.106;-2.088;2023-03-25T15:03:12;2.97;;;1.50;;
17079;SDS011;8655;57.106;-2.088;2023-03-25T15:05:42;4.10;;;1.63;;
17079;SDS011;8655;57.106;-2.088;2023-03-25T15:08:09;3.00;;;1.70;;
17079;SDS011;8655;57.106;-2.088;2023-03-25T15:10:42;3.67;;;1.50;;
17079;SDS011;8655;57.106;-2.088;2023-03-25T15:13:25;3.07;;;1.50;;
17079;SDS011;8655;57.106;-2.088;2023-03-25T15:15:55;3.67;;;1.90;;
17079;SDS011;8655;57.106;-2.088;2023-03-25T15:23:50;3.73;;;1.90;;
17079;SDS011;8655;57.106;-2.088;2023-03-25T15:37:57;2.83;;;1.70;;
17079;SDS011;8655;57.106;-2.088;2023-03-25T15:49:27;2.90;;;1.50;;
17079;SDS011;8655;57.106;-2.088;2023-03-25T15:55:45;3.13;;;1.77;;
17079;SDS011;8655;57.106;-2.088;2023-03-25T15:58:24;3.53;;;1.60;;
17079;SDS011;8655;57.106;-2.088;2023-03-25T16:00:58;2.73;;;1.37;;
17079;SDS011;8655;57.106;-2.088;2023-03-25T16:03:35;3.03;;;1.27;;
17079;SDS011;8655;57.106;-2.088;2023-03-25T16:06:03;3.37;;;1.57;;
17079;SDS011;8655;57.106;-2.088;2023-03-25T16:08:33;4.33;;;1.70;;
17079;SDS011;8655;57.106;-2.088;2023-03-25T16:11:14;3.30;;;1.50;;
17079;SDS011;8655;57.106;-2.088;2023-03-25T16:13:44;3.40;;;1.70;;
17079;SDS011;8655;57.106;-2.088;2023-03-25T16:16:10;4.17;;;1.50;;
17079;SDS011;8655;57.106;-2.088;2023-03-25T16:18:42;3.43;;;1.50;;
17079;SDS011;8655;57.106;-2.088;2023-03-25T16:21:10;3.43;;;1.70;;
17079;SDS011;8655;57.106;-2.088;2023-03-25T16:23:36;3.43;;;1.70;;
17079;SDS011;8655;57.106;-2.088;2023-03-25T16:26:03;2.27;;;1.17;;
17079;SDS011;8655;57.106;-2.088;2023-03-25T16:28:33;3.03;;;1.40;;
17079;SDS011;8655;57.106;-2.088;2023-03-25T16:31:08;3.30;;;1.37;;
17079;SDS011;8655;57.106;-2.088;2023-03-25T16:33:59;2.93;;;1.43;;
17079;SDS011;8655;57.106;-2.088;2023-03-25T16:36:25;2.17;;;1.20;;
17079;SDS011;8655;57.106;-2.088;2023-03-25T16:38:52;4.33;;;2.00;;
17079;SDS011;8655;57.106;-2.088;2023-03-25T16:41:18;2.93;;;1.63;;
17079;SDS011;8655;57.106;-2.088;2023-03-25T16:43:43;3.80;;;1.80;;
17079;SDS011;8655;57.106;-2.088;2023-03-25T16:46:10;3.10;;;1.47;;
17079;SDS011;8655;57.106;-2.088;2023-03-25T16:48:42;2.87;;;1.60;;
17079;SDS011;8655;57.106;-2.088;2023-03-25T16:51:15;4.20;;;1.40;;
17079;SDS011;8655;57.106;-2.088;2023-03-25T16:53:47;3.93;;;2.00;;
17079;SDS011;8655;57.106;-2.088;2023-03-25T16:58:53;2.80;;;1.60;;
17079;SDS011;8655;57.106;-2.088;2023-03-25T17:01:25;4.47;;;1.70;;
17079;SDS011;8655;57.106;-2.088;2023-03-25T17:03:54;3.23;;;1.60;;
17079;SDS011;8655;57.106;-2.088;2023-03-25T17:06:32;2.60;;;1.40;;
17079;SDS011;8655;57.106;-2.088;2023-03-25T17:09:03;3.03;;;1.70;;
17079;SDS011;8655;57.106;-2.088;2023-03-25T17:11:34;2.63;;;1.47;;
17079;SDS011;8655;57.106;-2.088;2023-03-25T17:14:01;2.97;;;1.50;;
17079;SDS011;8655;57.106;-2.088;2023-03-25T17:16:31;4.07;;;1.90;;
17079;SDS011;8655;57.106;-2.088;2023-03-25T17:19:00;3.70;;;1.67;;
17079;SDS011;8655;57.106;-2.088;2023-03-25T17:21:29;2.67;;;1.40;;
17079;SDS011;8655;57.106;-2.088;2023-03-25T17:23:58;3.23;;;1.30;;
17079;SDS011;8655;57.106;-2.088;2023-03-25T17:26:33;3.70;;;1.57;;
17079;SDS011;8655;57.106;-2.088;2023-03-25T17:29:17;3.07;;;1.50;;
17079;SDS011;8655;57.106;-2.088;2023-03-25T17:31:44;3.27;;;1.67;;
17079;SDS011;8655;57.106;-2.088;2023-03-25T17:34:23;4.73;;;1.70;;
17079;SDS011;8655;57.106;-2.088;2023-03-25T17:36:57;3.10;;;1.77;;
17079;SDS011;8655;57.106;-2.088;2023-03-25T17:39:29;3.70;;;1.67;;
17079;SDS011;8655;57.106;-2.088;2023-03-25T17:44:28;3.53;;;1.43;;
17079;SDS011;8655;57.106;-2.088;2023-03-25T17:47:00;2.80;;;1.50;;
17079;SDS011;8655;57.106;-2.088;2023-03-25T17:49:26;2.87;;;1.40;;
17079;SDS011;8655;57.106;-2.088;2023-03-25T17:51:51;2.90;;;1.63;;
17079;SDS011;8655;57.106;-2.088;2023-03-25T17:54:17;3.07;;;1.50;;
17079;SDS011;8655;57.106;-2.088;2023-03-25T17:56:43;3.70;;;1.80;;
17079;SDS011;8655;57.106;-2.088;2023-03-25T17:59:23;4.10;;;1.50;;
17079;SDS011;8655;57.106;-2.088;2023-03-25T18:01:51;4.33;;;1.90;;
17079;SDS011;8655;57.106;-2.088;2023-03-25T18:04:18;4.03;;;1.53;;
17079;SDS011;8655;57.106;-2.088;2023-03-25T18:06:47;3.27;;;1.50;;
17079;SDS011;8655;57.106;-2.088;2023-03-25T18:11:42;3.50;;;1.50;;
17079;SDS011;8655;57.106;-2.088;2023-03-25T18:14:09;5.13;;;1.67;;
17079;SDS011;8655;57.106;-2.088;2023-03-25T18:16:35;3.37;;;1.43;;
17079;SDS011;8655;57.106;-2.088;2023-03-25T18:19:00;3.47;;;1.73;;
17079;SDS011;8655;57.106;-2.088;2023-03-25T18:21:26;2.93;;;1.43;;
17079;SDS011;8655;57.106;-2.088;2023-03-25T18:23:52;4.00;;;1.70;;
17079;SDS011;8655;57.106;-2.088;2023-03-25T18:26:18;4.07;;;1.73;;
17079;SDS011;8655;57.106;-2.088;2023-03-25T18:28:44;3.93;;;1.77;;
17079;SDS011;8655;57.106;-2.088;2023-03-25T18:31:11;2.93;;;1.50;;